Lineboro, Maryland
Current Conditions -  °F | °C
As of 7:00 PM on Monday 22 Dec 2014 (Local Time) from KDMW Reporting Station
Unknown Precip Unknown Precip  
Wind Chill: 32°   Ceiling: 1500
Heat Index: 32°   Visibility: 1.2mi
Dew Point: 30°   Wind: 0mph
Humidity: 93%   Direction: NA
Pressure: 30.15"   Gusts: NA
Location:  39.72°N, 76.84°W
Report Text: KDMW 230000Z AUTO 00000KT 1 1/4SM UP BKN015 00/M01 A3015 RMK AO2 P0001
Loading
Personal Weather Stations






























Interactive Weather Map New forecast layout! Learn more

10-Day Weather Forecast

Advertisements
Track Severe Weather on mobile